GAP2131 RPLL-RPVE
Flight info
| Callsign | GAP2131 |
|---|---|
| Flight time | 0h 39m |
| Altitude | 23000 |
| Route | VERDE2R VERDE W24 TAPER TAPER7B |
| Aircraft | A320/M-SDE3FGHIRWY/LB1 |
Departure
| Time | 2026-04-25 12:20 |
|---|---|
| Airport | Ninoy Aquino International Airport (RPLL) |
Arrival
| Time | 2026-04-25 12:59 |
|---|---|
| Airport | Godofredo P. Ramos Airport (RPVE) |
| Time | Latitude | Longitude | Altitude | Speed | Heading |
|---|---|---|---|---|---|
| 2026-04-25 10:52 | 14.50881 | 121.01370 | 68 ft | 0 kts | 330° |
| 2026-04-25 12:09 | 14.50878 | 121.01372 | 68 ft | 1 kts | 330° |
| 2026-04-25 12:09 | 14.50872 | 121.01376 | 61 ft | 1 kts | 330° |
| 2026-04-25 12:10 | 14.50865 | 121.01380 | 58 ft | 1 kts | 330° |
| 2026-04-25 12:10 | 14.50858 | 121.01384 | 63 ft | 2 kts | 330° |
| 2026-04-25 12:10 | 14.50844 | 121.01392 | 63 ft | 2 kts | 330° |
| 2026-04-25 12:10 | 14.50831 | 121.01399 | 65 ft | 2 kts | 330° |
| 2026-04-25 12:11 | 14.50819 | 121.01407 | 61 ft | 2 kts | 322° |
| 2026-04-25 12:11 | 14.50810 | 121.01420 | 63 ft | 2 kts | 257° |
| 2026-04-25 12:11 | 14.50811 | 121.01424 | 62 ft | 0 kts | 245° |
| 2026-04-25 12:12 | 14.50811 | 121.01423 | 63 ft | 1 kts | 245° |
| 2026-04-25 12:12 | 14.50793 | 121.01391 | 61 ft | 8 kts | 240° |
| 2026-04-25 12:12 | 14.50755 | 121.01328 | 63 ft | 12 kts | 229° |
| 2026-04-25 12:13 | 14.50674 | 121.01313 | 63 ft | 14 kts | 206° |
| 2026-04-25 12:13 | 14.50608 | 121.01209 | 66 ft | 18 kts | 240° |
| 2026-04-25 12:13 | 14.50535 | 121.01081 | 62 ft | 22 kts | 240° |
| 2026-04-25 12:13 | 14.50454 | 121.00933 | 64 ft | 23 kts | 241° |
| 2026-04-25 12:14 | 14.50381 | 121.00802 | 59 ft | 18 kts | 240° |
| 2026-04-25 12:14 | 14.50315 | 121.00684 | 65 ft | 20 kts | 240° |
| 2026-04-25 12:14 | 14.50266 | 121.00596 | 60 ft | 22 kts | 240° |
| 2026-04-25 12:14 | 14.50187 | 121.00452 | 65 ft | 24 kts | 240° |
| 2026-04-25 12:15 | 14.50103 | 121.00303 | 66 ft | 12 kts | 240° |
| 2026-04-25 12:15 | 14.50064 | 121.00232 | 65 ft | 13 kts | 240° |
| 2026-04-25 12:15 | 14.50033 | 121.00176 | 63 ft | 14 kts | 240° |
| 2026-04-25 12:15 | 14.49980 | 121.00082 | 67 ft | 15 kts | 239° |
| 2026-04-25 12:16 | 14.49927 | 120.99988 | 63 ft | 16 kts | 238° |
| 2026-04-25 12:16 | 14.49875 | 120.99967 | 62 ft | 0 kts | 159° |
| 2026-04-25 12:16 | 14.49872 | 120.99968 | 63 ft | 2 kts | 158° |
| 2026-04-25 12:16 | 14.49833 | 120.99987 | 67 ft | 10 kts | 152° |
| 2026-04-25 12:17 | 14.49813 | 121.00052 | 62 ft | 12 kts | 65° |
| 2026-04-25 12:17 | 14.49859 | 121.00141 | 60 ft | 0 kts | 59° |
| 2026-04-25 12:18 | 14.49860 | 121.00144 | 60 ft | 0 kts | 59° |
| 2026-04-25 12:19 | 14.49861 | 121.00144 | 60 ft | 0 kts | 59° |
| 2026-04-25 12:19 | 14.50032 | 121.00457 | 59 ft | 92 kts | 60° |
| 2026-04-25 12:19 | 14.50479 | 121.01252 | 66 ft | 159 kts | 59° |
| 2026-04-25 12:20 | 14.51078 | 121.02273 | 739 ft | 167 kts | 62° |
| 2026-04-25 12:20 | 14.51675 | 121.03299 | 1728 ft | 163 kts | 62° |
| 2026-04-25 12:20 | 14.52251 | 121.04353 | 2471 ft | 177 kts | 62° |
| 2026-04-25 12:20 | 14.52868 | 121.05507 | 3080 ft | 194 kts | 62° |
| 2026-04-25 12:21 | 14.53551 | 121.06797 | 3497 ft | 217 kts | 62° |
| 2026-04-25 12:21 | 14.54320 | 121.08241 | 3870 ft | 243 kts | 62° |
| 2026-04-25 12:21 | 14.55167 | 121.09851 | 4380 ft | 264 kts | 62° |
| 2026-04-25 12:21 | 14.56060 | 121.11578 | 5095 ft | 274 kts | 62° |
| 2026-04-25 12:22 | 14.56948 | 121.13312 | 6012 ft | 276 kts | 62° |
| 2026-04-25 12:22 | 14.57840 | 121.15068 | 6856 ft | 280 kts | 62° |
| 2026-04-25 12:22 | 14.58748 | 121.16868 | 7694 ft | 284 kts | 62° |
| 2026-04-25 12:22 | 14.59659 | 121.18688 | 8524 ft | 287 kts | 62° |
| 2026-04-25 12:23 | 14.60381 | 121.20625 | 9354 ft | 292 kts | 81° |
| 2026-04-25 12:23 | 14.60276 | 121.22731 | 10120 ft | 299 kts | 105° |
| 2026-04-25 12:23 | 14.59335 | 121.24692 | 10462 ft | 320 kts | 128° |
| 2026-04-25 12:23 | 14.57597 | 121.26235 | 10686 ft | 343 kts | 152° |
| 2026-04-25 12:24 | 14.55281 | 121.26997 | 11167 ft | 351 kts | 175° |
| 2026-04-25 12:24 | 14.52847 | 121.26796 | 11900 ft | 352 kts | 197° |
| 2026-04-25 12:24 | 14.50600 | 121.25820 | 12640 ft | 354 kts | 207° |
| 2026-04-25 12:24 | 14.48358 | 121.24707 | 13361 ft | 358 kts | 205° |
| 2026-04-25 12:25 | 14.46037 | 121.23784 | 14037 ft | 362 kts | 199° |
| 2026-04-25 12:25 | 14.43589 | 121.23043 | 14663 ft | 365 kts | 195° |
| 2026-04-25 12:25 | 14.41115 | 121.22436 | 15283 ft | 369 kts | 193° |
| 2026-04-25 12:25 | 14.38596 | 121.21885 | 15882 ft | 372 kts | 193° |
| 2026-04-25 12:26 | 14.36037 | 121.21348 | 16479 ft | 376 kts | 193° |
| 2026-04-25 12:26 | 14.33470 | 121.20813 | 17066 ft | 379 kts | 193° |
| 2026-04-25 12:26 | 14.31061 | 121.20307 | 17588 ft | 382 kts | 193° |
| 2026-04-25 12:26 | 14.28365 | 121.19738 | 18169 ft | 385 kts | 193° |
| 2026-04-25 12:27 | 14.25757 | 121.19184 | 18663 ft | 388 kts | 193° |
| 2026-04-25 12:27 | 14.23101 | 121.18619 | 19216 ft | 389 kts | 193° |
| 2026-04-25 12:27 | 14.20457 | 121.18056 | 19711 ft | 391 kts | 193° |
| 2026-04-25 12:27 | 14.17778 | 121.17486 | 20203 ft | 394 kts | 193° |
| 2026-04-25 12:28 | 14.15072 | 121.16911 | 20707 ft | 396 kts | 193° |
| 2026-04-25 12:28 | 14.12650 | 121.16396 | 21130 ft | 399 kts | 193° |
| 2026-04-25 12:28 | 14.09942 | 121.15820 | 21613 ft | 401 kts | 193° |
| 2026-04-25 12:28 | 14.07189 | 121.15234 | 22099 ft | 404 kts | 193° |
| 2026-04-25 12:29 | 14.04424 | 121.14646 | 22584 ft | 406 kts | 193° |
| 2026-04-25 12:29 | 14.01621 | 121.14050 | 22744 ft | 408 kts | 193° |
| 2026-04-25 12:29 | 13.98875 | 121.13467 | 22852 ft | 408 kts | 193° |
| 2026-04-25 12:29 | 13.96068 | 121.12871 | 22949 ft | 408 kts | 193° |
| 2026-04-25 12:30 | 13.93283 | 121.12279 | 22955 ft | 409 kts | 193° |
| 2026-04-25 12:30 | 13.90493 | 121.11687 | 22955 ft | 409 kts | 193° |
| 2026-04-25 12:30 | 13.87737 | 121.11101 | 22954 ft | 408 kts | 193° |
| 2026-04-25 12:30 | 13.84938 | 121.10507 | 22956 ft | 409 kts | 193° |
| 2026-04-25 12:31 | 13.82150 | 121.09915 | 22955 ft | 409 kts | 193° |
| 2026-04-25 12:31 | 13.79375 | 121.09326 | 22952 ft | 409 kts | 193° |
| 2026-04-25 12:31 | 13.76561 | 121.08729 | 22948 ft | 409 kts | 193° |
| 2026-04-25 12:31 | 13.73782 | 121.08139 | 22960 ft | 409 kts | 193° |
| 2026-04-25 12:32 | 13.71012 | 121.07552 | 22955 ft | 409 kts | 193° |
| 2026-04-25 12:32 | 13.68213 | 121.06958 | 22956 ft | 409 kts | 193° |
| 2026-04-25 12:32 | 13.65421 | 121.06366 | 22954 ft | 409 kts | 193° |
| 2026-04-25 12:32 | 13.62615 | 121.05772 | 22962 ft | 409 kts | 193° |
| 2026-04-25 12:33 | 13.59844 | 121.05185 | 22954 ft | 409 kts | 193° |
| 2026-04-25 12:33 | 13.57050 | 121.04593 | 22958 ft | 409 kts | 193° |
| 2026-04-25 12:33 | 13.54252 | 121.04031 | 22957 ft | 409 kts | 188° |
| 2026-04-25 12:33 | 13.51402 | 121.04004 | 22963 ft | 412 kts | 174° |
| 2026-04-25 12:34 | 13.48634 | 121.04720 | 22964 ft | 415 kts | 159° |
| 2026-04-25 12:34 | 13.46078 | 121.06159 | 22965 ft | 417 kts | 147° |
| 2026-04-25 12:34 | 13.43690 | 121.07847 | 22964 ft | 417 kts | 147° |
| 2026-04-25 12:34 | 13.42091 | 121.08979 | 22968 ft | 417 kts | 147° |
| 2026-04-25 12:35 | 13.38925 | 121.11216 | 22970 ft | 417 kts | 147° |
| 2026-04-25 12:35 | 13.36528 | 121.12905 | 22970 ft | 417 kts | 147° |
| 2026-04-25 12:35 | 13.34107 | 121.14607 | 22962 ft | 417 kts | 147° |
| 2026-04-25 12:35 | 13.31718 | 121.16285 | 22962 ft | 417 kts | 147° |
| 2026-04-25 12:36 | 13.29340 | 121.17953 | 22976 ft | 417 kts | 147° |
| 2026-04-25 12:36 | 13.26946 | 121.19633 | 22979 ft | 417 kts | 147° |
| 2026-04-25 12:36 | 13.24542 | 121.21319 | 22833 ft | 417 kts | 147° |
| 2026-04-25 12:36 | 13.22144 | 121.23001 | 22579 ft | 415 kts | 147° |
| 2026-04-25 12:37 | 13.19780 | 121.24658 | 22328 ft | 413 kts | 147° |
| 2026-04-25 12:37 | 13.17418 | 121.26314 | 22077 ft | 411 kts | 147° |
| 2026-04-25 12:37 | 13.15039 | 121.27981 | 21832 ft | 410 kts | 147° |
| 2026-04-25 12:37 | 13.12711 | 121.29612 | 21589 ft | 408 kts | 147° |
| 2026-04-25 12:38 | 13.10353 | 121.31264 | 21341 ft | 407 kts | 147° |
| 2026-04-25 12:38 | 13.08034 | 121.32887 | 21101 ft | 406 kts | 146° |
| 2026-04-25 12:38 | 13.05706 | 121.34517 | 20862 ft | 404 kts | 146° |
| 2026-04-25 12:38 | 13.03350 | 121.36165 | 20618 ft | 403 kts | 146° |
| 2026-04-25 12:39 | 13.01047 | 121.37777 | 20382 ft | 401 kts | 146° |
| 2026-04-25 12:39 | 12.98758 | 121.39379 | 20141 ft | 400 kts | 146° |
| 2026-04-25 12:39 | 12.96473 | 121.40977 | 19916 ft | 398 kts | 146° |
| 2026-04-25 12:39 | 12.94170 | 121.42587 | 19694 ft | 397 kts | 146° |
| 2026-04-25 12:40 | 12.91894 | 121.44178 | 19457 ft | 396 kts | 146° |
| 2026-04-25 12:40 | 12.89613 | 121.45771 | 19224 ft | 395 kts | 146° |
| 2026-04-25 12:40 | 12.87351 | 121.47351 | 18998 ft | 393 kts | 146° |
| 2026-04-25 12:40 | 12.85098 | 121.48924 | 18771 ft | 392 kts | 146° |
| 2026-04-25 12:41 | 12.82866 | 121.50483 | 18547 ft | 391 kts | 146° |
| 2026-04-25 12:41 | 12.80591 | 121.52071 | 18323 ft | 390 kts | 146° |
| 2026-04-25 12:41 | 12.78360 | 121.53629 | 18081 ft | 388 kts | 146° |
| 2026-04-25 12:41 | 12.76154 | 121.55169 | 17832 ft | 387 kts | 146° |
| 2026-04-25 12:42 | 12.73923 | 121.56727 | 17574 ft | 385 kts | 146° |
| 2026-04-25 12:42 | 12.73192 | 121.57237 | 17491 ft | 385 kts | 146° |
| 2026-04-25 12:42 | 12.69488 | 121.59822 | 17070 ft | 383 kts | 146° |
| 2026-04-25 12:42 | 12.67306 | 121.61344 | 16822 ft | 382 kts | 146° |
| 2026-04-25 12:43 | 12.65096 | 121.62885 | 16575 ft | 381 kts | 146° |
| 2026-04-25 12:43 | 12.62928 | 121.64398 | 16329 ft | 379 kts | 146° |
| 2026-04-25 12:43 | 12.58577 | 121.67430 | 15824 ft | 376 kts | 146° |
| 2026-04-25 12:44 | 12.56422 | 121.68931 | 15401 ft | 373 kts | 146° |
| 2026-04-25 12:44 | 12.54277 | 121.70426 | 14886 ft | 371 kts | 146° |
| 2026-04-25 12:44 | 12.50014 | 121.73396 | 13879 ft | 367 kts | 146° |
| 2026-04-25 12:45 | 12.47926 | 121.74850 | 13398 ft | 363 kts | 146° |
| 2026-04-25 12:45 | 12.45841 | 121.76299 | 12888 ft | 360 kts | 146° |
| 2026-04-25 12:45 | 12.42403 | 121.78690 | 12038 ft | 355 kts | 146° |
| 2026-04-25 12:46 | 12.40386 | 121.80092 | 11556 ft | 352 kts | 146° |
| 2026-04-25 12:46 | 12.37685 | 121.81921 | 11103 ft | 346 kts | 149° |
| 2026-04-25 12:46 | 12.36244 | 121.82684 | 10948 ft | 349 kts | 155° |
| 2026-04-25 12:46 | 12.33201 | 121.83763 | 10636 ft | 348 kts | 163° |
| 2026-04-25 12:47 | 12.30888 | 121.84438 | 10482 ft | 341 kts | 163° |
| 2026-04-25 12:47 | 12.29388 | 121.84881 | 10422 ft | 333 kts | 163° |
| 2026-04-25 12:47 | 12.27192 | 121.85534 | 10304 ft | 320 kts | 163° |
| 2026-04-25 12:47 | 12.25093 | 121.86159 | 10189 ft | 307 kts | 163° |
| 2026-04-25 12:48 | 12.23062 | 121.86765 | 9913 ft | 301 kts | 162° |
| 2026-04-25 12:48 | 12.21175 | 121.87328 | 9737 ft | 292 kts | 162° |
| 2026-04-25 12:48 | 12.19165 | 121.87927 | 9609 ft | 296 kts | 162° |
| 2026-04-25 12:48 | 12.17178 | 121.88519 | 9484 ft | 295 kts | 162° |
| 2026-04-25 12:49 | 12.15215 | 121.89103 | 9357 ft | 293 kts | 162° |
| 2026-04-25 12:49 | 12.13248 | 121.89688 | 9221 ft | 293 kts | 162° |
| 2026-04-25 12:49 | 12.11319 | 121.90261 | 9103 ft | 292 kts | 162° |
| 2026-04-25 12:49 | 12.09358 | 121.90843 | 8836 ft | 290 kts | 162° |
| 2026-04-25 12:50 | 12.07437 | 121.91411 | 8484 ft | 288 kts | 164° |
| 2026-04-25 12:50 | 12.05444 | 121.91534 | 8073 ft | 291 kts | 188° |
| 2026-04-25 12:50 | 12.03567 | 121.90754 | 7653 ft | 294 kts | 215° |
| 2026-04-25 12:50 | 12.02169 | 121.89249 | 7232 ft | 295 kts | 233° |
| 2026-04-25 12:51 | 12.01013 | 121.87526 | 6845 ft | 295 kts | 236° |
| 2026-04-25 12:51 | 11.99881 | 121.85769 | 6464 ft | 294 kts | 236° |
| 2026-04-25 12:51 | 11.98746 | 121.84032 | 6090 ft | 293 kts | 234° |
| 2026-04-25 12:51 | 11.97591 | 121.82307 | 5685 ft | 293 kts | 234° |
| 2026-04-25 12:52 | 11.96443 | 121.80619 | 5315 ft | 291 kts | 233° |
| 2026-04-25 12:52 | 11.95279 | 121.78921 | 4933 ft | 291 kts | 233° |
| 2026-04-25 12:52 | 11.94110 | 121.77223 | 4542 ft | 290 kts | 233° |
| 2026-04-25 12:52 | 11.92950 | 121.75559 | 4153 ft | 289 kts | 229° |
| 2026-04-25 12:53 | 11.91404 | 121.74295 | 3956 ft | 279 kts | 200° |
| 2026-04-25 12:53 | 11.89535 | 121.73891 | 3836 ft | 276 kts | 173° |
| 2026-04-25 12:53 | 11.87727 | 121.74368 | 3794 ft | 262 kts | 150° |
| 2026-04-25 12:53 | 11.86172 | 121.75212 | 3787 ft | 246 kts | 146° |
| 2026-04-25 12:54 | 11.84816 | 121.76165 | 3758 ft | 226 kts | 127° |
| 2026-04-25 12:54 | 11.84138 | 121.77513 | 3669 ft | 205 kts | 97° |
| 2026-04-25 12:54 | 11.84205 | 121.78895 | 3571 ft | 191 kts | 72° |
| 2026-04-25 12:54 | 11.84779 | 121.80108 | 3344 ft | 187 kts | 63° |
| 2026-04-25 12:55 | 11.85378 | 121.81267 | 3135 ft | 183 kts | 64° |
| 2026-04-25 12:55 | 11.85758 | 121.82019 | 3128 ft | 171 kts | 64° |
| 2026-04-25 12:55 | 11.86435 | 121.83365 | 2998 ft | 152 kts | 64° |
| 2026-04-25 12:55 | 11.86882 | 121.84259 | 2887 ft | 140 kts | 64° |
| 2026-04-25 12:56 | 11.87307 | 121.85114 | 2724 ft | 134 kts | 65° |
| 2026-04-25 12:56 | 11.87739 | 121.85982 | 2444 ft | 136 kts | 64° |
| 2026-04-25 12:56 | 11.88164 | 121.86838 | 2217 ft | 136 kts | 64° |
| 2026-04-25 12:56 | 11.88595 | 121.87698 | 1975 ft | 136 kts | 64° |
| 2026-04-25 12:57 | 11.89023 | 121.88548 | 1726 ft | 134 kts | 64° |
| 2026-04-25 12:57 | 11.89451 | 121.89392 | 1391 ft | 136 kts | 63° |
| 2026-04-25 12:57 | 11.89882 | 121.90254 | 1408 ft | 134 kts | 64° |
| 2026-04-25 12:57 | 11.90287 | 121.91069 | 1261 ft | 126 kts | 64° |
| 2026-04-25 12:58 | 11.90691 | 121.91883 | 1056 ft | 134 kts | 63° |
| 2026-04-25 12:58 | 11.91127 | 121.92750 | 883 ft | 138 kts | 62° |
| 2026-04-25 12:58 | 11.91581 | 121.93610 | 577 ft | 137 kts | 63° |
| 2026-04-25 12:58 | 11.92002 | 121.94466 | 237 ft | 133 kts | 64° |
| 2026-04-25 12:59 | 11.92408 | 121.95306 | 32 ft | 125 kts | 63° |
| 2026-04-25 12:59 | 11.92721 | 121.95928 | 27 ft | 57 kts | 63° |
| 2026-04-25 12:59 | 11.92803 | 121.96097 | 29 ft | 0 kts | 86° |
| 2026-04-25 12:59 | 11.92787 | 121.96125 | 27 ft | 9 kts | 136° |
| 2026-04-25 13:00 | 11.92720 | 121.96163 | 26 ft | 14 kts | 153° |
| 2026-04-25 13:00 | 11.92664 | 121.96195 | 26 ft | 8 kts | 139° |
| 2026-04-25 13:00 | 11.92686 | 121.96298 | 28 ft | 14 kts | 63° |
| 2026-04-25 13:00 | 11.92703 | 121.96330 | 30 ft | 5 kts | 63° |
| 2026-04-25 13:01 | 11.92735 | 121.96394 | 29 ft | 13 kts | 62° |
| 2026-04-25 13:01 | 11.92737 | 121.96424 | 28 ft | 3 kts | 154° |
| 2026-04-25 13:01 | 11.92713 | 121.96435 | 28 ft | 7 kts | 153° |
| 2026-04-25 13:01 | 11.92706 | 121.96439 | 26 ft | 0 kts | 153° |